createdAt,value
2022-08-02T00:01:25.290Z,17.55
2022-08-02T00:06:28.711Z,17.51
2022-08-02T00:11:31.959Z,17.49
2022-08-02T00:16:37.504Z,17.45
2022-08-02T00:21:41.589Z,17.45
2022-08-02T00:26:44.535Z,17.43
2022-08-02T00:31:49.021Z,17.46
2022-08-02T00:36:52.199Z,17.35
2022-08-02T00:41:55.261Z,17.38
2022-08-02T00:46:59.659Z,17.37
2022-08-02T00:52:02.778Z,17.34
2022-08-02T00:57:06.063Z,17.39
2022-08-02T01:02:10.805Z,17.37
2022-08-02T01:07:14.694Z,17.34
2022-08-02T01:12:17.959Z,17.27
2022-08-02T01:17:30.552Z,17.28
2022-08-02T01:23:02.317Z,17.25
2022-08-02T01:28:29.495Z,17.26
2022-08-02T01:33:41.009Z,17.30
2022-08-02T01:38:48.418Z,17.32
2022-08-02T01:43:59.918Z,17.26
2022-08-02T01:49:09.426Z,17.18
2022-08-02T01:54:15.496Z,17.12
2022-08-02T01:59:23.709Z,17.05
2022-08-02T02:04:29.406Z,17.04
2022-08-02T02:09:37.272Z,17.02
2022-08-02T02:14:56.809Z,16.97
2022-08-02T02:20:02.855Z,16.93
2022-08-02T02:25:07.453Z,16.86
2022-08-02T02:30:17.617Z,16.87
2022-08-02T02:35:22.858Z,16.89
2022-08-02T02:40:28.624Z,16.84
2022-08-02T02:45:34.505Z,16.77
2022-08-02T02:50:38.089Z,16.75
2022-08-02T02:56:02.197Z,16.75
2022-08-02T03:01:55.929Z,16.75
2022-08-02T03:06:48.018Z,16.74
2022-08-02T03:11:51.730Z,16.71
2022-08-02T03:16:56.108Z,16.70
2022-08-02T03:21:59.190Z,16.66
2022-08-02T03:27:03.074Z,16.66
2022-08-02T03:32:08.108Z,16.67
2022-08-02T03:37:11.522Z,16.64
2022-08-02T03:42:15.750Z,16.63
2022-08-02T03:47:21.089Z,16.62
2022-08-02T03:52:25.577Z,16.64
2022-08-02T03:57:28.885Z,16.66
2022-08-02T04:02:33.195Z,16.64
2022-08-02T04:08:02.643Z,16.62
2022-08-02T04:13:00.025Z,16.59
2022-08-02T04:18:04.927Z,16.54
2022-08-02T04:23:09.230Z,16.49
2022-08-02T04:28:16.871Z,16.47
2022-08-02T04:33:22.985Z,16.50
2022-08-02T04:38:26.680Z,16.49
2022-08-02T04:43:29.873Z,16.50
2022-08-02T04:48:34.823Z,16.51
2022-08-02T04:53:37.958Z,16.57
2022-08-02T04:58:41.304Z,16.58
2022-08-02T05:03:46.811Z,16.62
2022-08-02T05:08:52.767Z,16.66
2022-08-02T05:13:58.105Z,16.69
2022-08-02T05:19:04.303Z,16.73
2022-08-02T05:24:08.575Z,16.75
2022-08-02T05:29:11.542Z,16.83
2022-08-02T05:34:16.264Z,16.89
2022-08-02T05:39:19.816Z,16.98
2022-08-02T05:44:23.823Z,17.04
2022-08-02T05:49:28.434Z,17.11
2022-08-02T05:54:44.120Z,17.19
2022-08-02T05:59:55.646Z,17.23
2022-08-02T06:05:05.552Z,17.29
2022-08-02T06:10:10.259Z,17.35
2022-08-02T06:15:15.675Z,17.41
2022-08-02T06:20:21.778Z,17.55
2022-08-02T06:25:50.452Z,17.70
2022-08-02T06:30:48.227Z,17.84
2022-08-02T06:36:01.904Z,17.96
2022-08-02T06:41:08.355Z,18.06
2022-08-02T06:46:34.062Z,18.23
2022-08-02T06:51:38.420Z,18.36
2022-08-02T06:56:41.906Z,18.58
2022-08-02T07:01:45.570Z,18.73
2022-08-02T07:06:50.333Z,18.79
2022-08-02T07:11:53.576Z,18.83
2022-08-02T07:16:56.880Z,18.86
2022-08-02T07:22:02.458Z,18.92
2022-08-02T07:27:13.253Z,19.08
2022-08-02T07:32:18.033Z,19.25
2022-08-02T07:37:36.022Z,19.46
2022-08-02T07:42:47.347Z,19.79
2022-08-02T07:47:51.816Z,20.44
2022-08-02T07:52:57.585Z,20.82
2022-08-02T07:58:01.487Z,21.11
2022-08-02T08:03:04.765Z,21.25
2022-08-02T08:08:13.823Z,21.50
2022-08-02T08:13:20.230Z,21.95
2022-08-02T08:18:24.146Z,22.37
2022-08-02T08:23:30.995Z,22.69
2022-08-02T08:28:35.605Z,23.12
2022-08-02T08:33:38.960Z,23.38
2022-08-02T08:38:43.528Z,23.73
2022-08-02T08:43:52.868Z,23.97
2022-08-02T08:49:07.446Z,24.08
2022-08-02T08:54:17.250Z,24.16
2022-08-02T08:59:20.717Z,24.45
2022-08-02T09:04:24.491Z,24.86
2022-08-02T09:09:29.108Z,25.00
2022-08-02T09:14:32.857Z,25.57
2022-08-02T09:19:37.077Z,26.21
2022-08-02T09:24:47.303Z,26.31
2022-08-02T09:30:11.994Z,26.65
2022-08-02T09:36:06.503Z,26.93
2022-08-02T09:41:00.561Z,27.18
2022-08-02T09:46:11.961Z,27.48
2022-08-02T09:51:20.324Z,27.91
2022-08-02T09:56:35.217Z,28.18
2022-08-02T10:01:40.302Z,28.41
2022-08-02T10:06:55.127Z,28.50
2022-08-02T10:12:01.366Z,28.34
2022-08-02T10:17:06.084Z,28.37
2022-08-02T10:22:12.979Z,28.11
2022-08-02T10:27:20.403Z,28.38
2022-08-02T10:32:29.948Z,28.76
2022-08-02T10:37:37.440Z,29.12
2022-08-02T10:42:49.817Z,28.95
2022-08-02T10:48:04.196Z,28.83
2022-08-02T10:53:28.069Z,29.12
2022-08-02T10:58:33.818Z,29.17
2022-08-02T11:03:42.428Z,28.99
2022-08-02T11:08:45.468Z,29.01
2022-08-02T11:14:04.058Z,29.37
2022-08-02T11:19:07.300Z,29.49
2022-08-02T11:24:29.042Z,29.61
2022-08-02T11:29:42.004Z,29.55
2022-08-02T11:34:49.266Z,29.19
2022-08-02T11:39:53.009Z,29.18
2022-08-02T11:44:57.520Z,29.31
2022-08-02T11:50:11.541Z,29.31
2022-08-02T11:55:14.869Z,29.37
2022-08-02T12:00:20.371Z,29.40
2022-08-02T12:05:51.335Z,29.17
2022-08-02T12:10:49.412Z,29.42
2022-08-02T12:15:54.357Z,29.38
2022-08-02T12:20:58.312Z,29.36
2022-08-02T12:26:02.336Z,29.41
2022-08-02T12:31:08.513Z,29.58
2022-08-02T12:36:17.101Z,29.71
2022-08-02T12:41:30.804Z,29.71
2022-08-02T12:46:42.053Z,29.68
2022-08-02T12:51:55.900Z,30.01
2022-08-02T12:57:12.675Z,30.09
2022-08-02T13:02:18.180Z,30.05
2022-08-02T13:07:21.556Z,29.94
2022-08-02T13:12:24.923Z,30.07
2022-08-02T13:17:29.511Z,30.11
2022-08-02T13:22:32.898Z,30.25
2022-08-02T13:27:38.249Z,30.34
2022-08-02T13:32:42.781Z,30.43
2022-08-02T13:37:47.740Z,30.38
2022-08-02T13:42:50.918Z,30.44
2022-08-02T13:48:03.900Z,30.55
2022-08-02T13:53:08.857Z,30.58
2022-08-02T13:58:12.253Z,30.74
2022-08-02T14:03:16.922Z,31.02
2022-08-02T14:08:22.524Z,31.19
2022-08-02T14:13:25.782Z,30.87
2022-08-02T14:18:30.417Z,31.23
2022-08-02T14:23:49.925Z,31.13
2022-08-02T14:28:54.380Z,30.92
2022-08-02T14:33:58.888Z,30.85
2022-08-02T14:39:02.296Z,31.01
2022-08-02T14:44:06.173Z,31.04
2022-08-02T14:49:14.629Z,31.24
2022-08-02T14:54:31.517Z,31.43
2022-08-02T14:59:34.846Z,31.83
2022-08-02T15:04:42.488Z,32.08
2022-08-02T15:09:46.542Z,32.02
2022-08-02T15:14:49.580Z,31.95
2022-08-02T15:19:58.187Z,31.88
2022-08-02T15:25:04.495Z,31.95
2022-08-02T15:30:17.992Z,31.99
2022-08-02T15:35:22.868Z,31.87
2022-08-02T15:40:27.623Z,31.72
2022-08-02T15:45:30.826Z,31.89
2022-08-02T15:50:35.217Z,31.83
2022-08-02T15:55:40.113Z,31.75
2022-08-02T16:00:56.396Z,31.67
2022-08-02T16:06:00.806Z,31.78
2022-08-02T16:11:03.799Z,31.72
2022-08-02T16:16:07.024Z,31.85
2022-08-02T16:21:11.647Z,31.80
2022-08-02T16:26:14.956Z,31.86
2022-08-02T16:31:18.817Z,31.82
2022-08-02T16:36:23.714Z,31.67
2022-08-02T16:41:50.937Z,32.58
2022-08-02T16:46:50.791Z,34.31
2022-08-02T16:51:56.155Z,34.22
2022-08-02T16:56:59.521Z,33.38
2022-08-02T17:02:11.381Z,32.79
2022-08-02T17:08:06.162Z,32.56
2022-08-02T17:12:40.552Z,32.09
2022-08-02T17:17:43.695Z,31.82
2022-08-02T17:22:50.705Z,31.63
2022-08-02T17:27:55.887Z,31.47
2022-08-02T17:32:59.682Z,31.28
2022-08-02T17:38:05.399Z,30.87
2022-08-02T17:43:14.780Z,30.91
2022-08-02T17:48:19.917Z,31.07
2022-08-02T17:53:36.276Z,30.79
2022-08-02T17:58:39.520Z,30.60
2022-08-02T18:03:55.209Z,30.31
2022-08-02T18:08:59.601Z,30.17
2022-08-02T18:14:04.070Z,29.83
2022-08-02T18:19:16.843Z,29.50
2022-08-02T18:24:24.113Z,29.30
2022-08-02T18:29:30.173Z,29.17
2022-08-02T18:34:44.373Z,28.85
2022-08-02T18:39:52.266Z,28.64
2022-08-02T18:44:55.417Z,28.30
2022-08-02T18:50:00.007Z,27.82
2022-08-02T19:00:28.160Z,27.24
2022-08-02T19:05:53.230Z,26.99
2022-08-02T19:10:57.433Z,26.73
2022-08-02T19:16:06.263Z,26.54
2022-08-02T19:21:09.436Z,26.38
2022-08-02T19:26:14.285Z,26.10
2022-08-02T19:31:18.175Z,25.89
2022-08-02T19:36:22.389Z,25.76
2022-08-02T19:41:43.920Z,25.37
2022-08-02T19:46:49.119Z,25.21
2022-08-02T19:57:19.397Z,25.11
2022-08-02T20:02:22.813Z,24.85
2022-08-02T20:07:54.316Z,24.81
2022-08-02T20:12:50.703Z,24.79
2022-08-02T20:17:53.857Z,24.67
2022-08-02T20:23:33.134Z,24.73
2022-08-02T20:28:38.874Z,24.53
2022-08-02T20:33:55.397Z,24.45
2022-08-02T20:38:59.650Z,24.28
2022-08-02T20:44:04.627Z,24.18
2022-08-02T20:49:25.216Z,23.95
2022-08-02T20:54:41.648Z,23.83
2022-08-02T20:59:51.242Z,23.77
2022-08-02T21:04:55.374Z,23.63
2022-08-02T21:09:58.770Z,23.50
2022-08-02T21:15:03.390Z,23.41
2022-08-02T21:20:07.153Z,23.27
2022-08-02T21:25:10.960Z,23.26
2022-08-02T21:30:20.814Z,23.22
2022-08-02T21:35:28.346Z,23.17
2022-08-02T21:40:32.561Z,23.15
2022-08-02T21:45:38.024Z,23.13
2022-08-02T21:50:56.925Z,23.12
2022-08-02T21:56:00.903Z,23.05
2022-08-02T22:01:07.311Z,22.99
2022-08-02T22:06:10.498Z,22.89
2022-08-02T22:11:17.249Z,22.83
2022-08-02T22:16:38.486Z,22.77
2022-08-02T22:21:54.593Z,22.74
2022-08-02T22:26:59.168Z,22.68
2022-08-02T22:32:04.152Z,22.62
2022-08-02T22:37:07.753Z,22.54
2022-08-02T22:42:30.465Z,22.48
2022-08-02T22:47:38.905Z,22.43
2022-08-02T22:52:54.566Z,22.34
2022-08-02T22:57:58.280Z,22.26
2022-08-02T22:58:46.032Z,27.40
2022-08-02T22:59:07.626Z,25.19
2022-08-02T23:03:02.857Z,22.17
2022-08-02T23:08:06.625Z,22.06
2022-08-02T23:13:09.893Z,22.00
2022-08-02T23:18:31.720Z,21.90
2022-08-02T23:23:34.690Z,21.84
2022-08-02T23:28:37.687Z,21.79
2022-08-02T23:34:03.850Z,21.71
2022-08-02T23:39:05.529Z,21.65
2022-08-02T23:44:14.167Z,21.56
2022-08-02T23:49:19.767Z,21.52
2022-08-02T23:54:22.802Z,21.43
2022-08-02T23:59:26.322Z,21.40
